Berwick, Canada
Current Conditions -  °F | °C
As of 8:00 AM on Wednesday 26 Nov 2014 (Local Time) from CYZX Reporting Station
Broken Clouds Broken Clouds  
Wind Chill: 42°   Ceiling: 17000
Heat Index: 48°   Visibility: 15mi
Dew Point: 32°   Wind: 15mph
Humidity: 54%   Direction: 280°W
Pressure: 30.18"   Gusts: NA
Location:  45.03°N, 64.73°W
Report Text: CYZX 261200Z 28013KT 15SM BKN170 09/M00 A3018 RMK AC7 WNDY HILL 31015G22KT SLP219
Loading
Personal Weather Stations






























Interactive Weather Map New forecast layout! Learn more

10-Day Weather Forecast

Advertisements
Track Severe Weather on mobile